sensor_id;sensor_type;location;lat;lon;timestamp;temperature;humidity
9973;DHT22;5027;53.560;10.062;2023-07-28T00:01:56;19.30;99.90
9973;DHT22;5027;53.560;10.062;2023-07-28T00:04:23;19.20;99.90
9973;DHT22;5027;53.560;10.062;2023-07-28T00:06:50;19.20;99.90
9973;DHT22;5027;53.560;10.062;2023-07-28T00:09:17;19.20;99.90
9973;DHT22;5027;53.560;10.062;2023-07-28T00:11:44;19.20;99.90
9973;DHT22;5027;53.560;10.062;2023-07-28T00:14:10;19.20;99.90
9973;DHT22;5027;53.560;10.062;2023-07-28T00:16:37;19.20;99.90
9973;DHT22;5027;53.560;10.062;2023-07-28T00:19:04;19.20;99.90
9973;DHT22;5027;53.560;10.062;2023-07-28T00:21:31;19.20;99.90
9973;DHT22;5027;53.560;10.062;2023-07-28T00:23:58;19.30;99.90
9973;DHT22;5027;53.560;10.062;2023-07-28T00:26:24;19.30;99.90
9973;DHT22;5027;53.560;10.062;2023-07-28T00:28:51;19.40;99.90
9973;DHT22;5027;53.560;10.062;2023-07-28T00:31:18;19.30;99.90
9973;DHT22;5027;53.560;10.062;2023-07-28T00:33:46;19.30;99.90
9973;DHT22;5027;53.560;10.062;2023-07-28T00:36:12;19.30;99.90
9973;DHT22;5027;53.560;10.062;2023-07-28T00:38:39;19.30;99.90
9973;DHT22;5027;53.560;10.062;2023-07-28T00:41:06;19.30;99.90
9973;DHT22;5027;53.560;10.062;2023-07-28T00:43:32;19.30;99.90
9973;DHT22;5027;53.560;10.062;2023-07-28T00:45:59;19.30;99.90
9973;DHT22;5027;53.560;10.062;2023-07-28T00:48:26;19.30;99.90
9973;DHT22;5027;53.560;10.062;2023-07-28T00:50:53;19.30;99.90
9973;DHT22;5027;53.560;10.062;2023-07-28T00:53:22;19.30;99.90
9973;DHT22;5027;53.560;10.062;2023-07-28T00:55:50;19.30;99.90
9973;DHT22;5027;53.560;10.062;2023-07-28T00:58:18;19.30;99.90
9973;DHT22;5027;53.560;10.062;2023-07-28T01:00:45;19.30;99.90
9973;DHT22;5027;53.560;10.062;2023-07-28T01:03:12;19.30;99.90
9973;DHT22;5027;53.560;10.062;2023-07-28T01:05:52;19.30;99.90
9973;DHT22;5027;53.560;10.062;2023-07-28T01:08:53;19.30;99.90
9973;DHT22;5027;53.560;10.062;2023-07-28T01:11:21;19.30;99.90
9973;DHT22;5027;53.560;10.062;2023-07-28T01:13:48;19.30;99.90
9973;DHT22;5027;53.560;10.062;2023-07-28T01:16:14;19.40;99.90
9973;DHT22;5027;53.560;10.062;2023-07-28T01:18:41;19.30;99.90
9973;DHT22;5027;53.560;10.062;2023-07-28T01:21:16;19.30;99.90
9973;DHT22;5027;53.560;10.062;2023-07-28T01:26:46;19.30;99.90
9973;DHT22;5027;53.560;10.062;2023-07-28T01:29:14;19.30;99.90
9973;DHT22;5027;53.560;10.062;2023-07-28T01:31:42;19.30;99.90
9973;DHT22;5027;53.560;10.062;2023-07-28T01:34:09;19.30;99.90
9973;DHT22;5027;53.560;10.062;2023-07-28T01:36:35;19.30;99.90
9973;DHT22;5027;53.560;10.062;2023-07-28T01:39:03;19.30;99.90
9973;DHT22;5027;53.560;10.062;2023-07-28T01:41:31;19.30;99.90
9973;DHT22;5027;53.560;10.062;2023-07-28T01:43:58;19.30;99.90
9973;DHT22;5027;53.560;10.062;2023-07-28T01:46:25;19.30;99.90
9973;DHT22;5027;53.560;10.062;2023-07-28T01:48:52;19.30;99.90
9973;DHT22;5027;53.560;10.062;2023-07-28T01:51:18;19.30;99.90
9973;DHT22;5027;53.560;10.062;2023-07-28T01:53:45;19.30;99.90
9973;DHT22;5027;53.560;10.062;2023-07-28T01:56:12;19.30;99.90
9973;DHT22;5027;53.560;10.062;2023-07-28T01:58:38;19.30;99.90
9973;DHT22;5027;53.560;10.062;2023-07-28T02:01:05;19.30;99.90
9973;DHT22;5027;53.560;10.062;2023-07-28T02:03:32;19.30;99.90
9973;DHT22;5027;53.560;10.062;2023-07-28T02:06:00;19.30;99.90
9973;DHT22;5027;53.560;10.062;2023-07-28T02:08:27;19.30;99.90
9973;DHT22;5027;53.560;10.062;2023-07-28T02:10:54;19.30;99.90
9973;DHT22;5027;53.560;10.062;2023-07-28T02:13:20;19.30;99.90
9973;DHT22;5027;53.560;10.062;2023-07-28T02:15:47;19.30;99.90
9973;DHT22;5027;53.560;10.062;2023-07-28T02:18:14;19.30;99.90
9973;DHT22;5027;53.560;10.062;2023-07-28T02:20:40;19.30;99.90
9973;DHT22;5027;53.560;10.062;2023-07-28T02:23:07;19.30;99.90
9973;DHT22;5027;53.560;10.062;2023-07-28T02:25:34;19.30;99.90
9973;DHT22;5027;53.560;10.062;2023-07-28T02:28:01;19.30;99.90
9973;DHT22;5027;53.560;10.062;2023-07-28T02:30:28;19.30;99.90
9973;DHT22;5027;53.560;10.062;2023-07-28T02:32:55;19.30;99.90
9973;DHT22;5027;53.560;10.062;2023-07-28T02:35:22;19.30;99.90
9973;DHT22;5027;53.560;10.062;2023-07-28T02:37:49;19.30;99.90
9973;DHT22;5027;53.560;10.062;2023-07-28T02:40:16;19.30;99.90
9973;DHT22;5027;53.560;10.062;2023-07-28T02:42:42;19.30;99.90
9973;DHT22;5027;53.560;10.062;2023-07-28T02:45:09;19.20;99.90
9973;DHT22;5027;53.560;10.062;2023-07-28T02:47:37;19.20;99.90
9973;DHT22;5027;53.560;10.062;2023-07-28T02:50:04;19.20;99.90
9973;DHT22;5027;53.560;10.062;2023-07-28T02:52:31;19.20;99.90
9973;DHT22;5027;53.560;10.062;2023-07-28T02:54:58;19.20;99.90
9973;DHT22;5027;53.560;10.062;2023-07-28T02:57:26;19.20;99.90
9973;DHT22;5027;53.560;10.062;2023-07-28T02:59:53;19.20;99.90
9973;DHT22;5027;53.560;10.062;2023-07-28T03:02:20;19.20;99.90
9973;DHT22;5027;53.560;10.062;2023-07-28T03:04:47;19.20;99.90
9973;DHT22;5027;53.560;10.062;2023-07-28T03:07:41;19.20;99.90
9973;DHT22;5027;53.560;10.062;2023-07-28T03:10:09;19.20;99.90
9973;DHT22;5027;53.560;10.062;2023-07-28T03:12:36;19.20;99.90
9973;DHT22;5027;53.560;10.062;2023-07-28T03:15:03;19.20;99.90
9973;DHT22;5027;53.560;10.062;2023-07-28T03:17:30;19.20;99.90
9973;DHT22;5027;53.560;10.062;2023-07-28T03:19:57;19.20;99.90
9973;DHT22;5027;53.560;10.062;2023-07-28T03:22:24;19.20;99.90
9973;DHT22;5027;53.560;10.062;2023-07-28T03:24:51;19.20;99.90
9973;DHT22;5027;53.560;10.062;2023-07-28T03:27:17;19.30;99.90
9973;DHT22;5027;53.560;10.062;2023-07-28T03:29:45;19.20;99.90
9973;DHT22;5027;53.560;10.062;2023-07-28T03:32:12;19.20;99.90
9973;DHT22;5027;53.560;10.062;2023-07-28T03:34:39;19.20;99.90
9973;DHT22;5027;53.560;10.062;2023-07-28T03:37:10;19.20;99.90
9973;DHT22;5027;53.560;10.062;2023-07-28T03:39:37;19.10;99.90
9973;DHT22;5027;53.560;10.062;2023-07-28T03:42:04;19.10;99.90
9973;DHT22;5027;53.560;10.062;2023-07-28T03:44:31;19.20;99.90
9973;DHT22;5027;53.560;10.062;2023-07-28T03:46:58;19.20;99.90
9973;DHT22;5027;53.560;10.062;2023-07-28T03:49:25;19.20;99.90
9973;DHT22;5027;53.560;10.062;2023-07-28T03:51:52;19.20;99.90
9973;DHT22;5027;53.560;10.062;2023-07-28T03:54:18;19.10;99.90
9973;DHT22;5027;53.560;10.062;2023-07-28T03:56:48;19.20;99.90
9973;DHT22;5027;53.560;10.062;2023-07-28T03:59:15;19.20;99.90
9973;DHT22;5027;53.560;10.062;2023-07-28T04:01:42;19.10;99.90
9973;DHT22;5027;53.560;10.062;2023-07-28T04:04:09;19.10;99.90
9973;DHT22;5027;53.560;10.062;2023-07-28T04:06:43;19.10;99.90
9973;DHT22;5027;53.560;10.062;2023-07-28T04:09:12;19.10;99.90
9973;DHT22;5027;53.560;10.062;2023-07-28T04:11:39;19.20;99.90
9973;DHT22;5027;53.560;10.062;2023-07-28T04:14:06;19.20;99.90
9973;DHT22;5027;53.560;10.062;2023-07-28T04:16:33;19.20;99.90
9973;DHT22;5027;53.560;10.062;2023-07-28T04:19:00;19.20;99.90
9973;DHT22;5027;53.560;10.062;2023-07-28T04:21:27;19.20;99.90
9973;DHT22;5027;53.560;10.062;2023-07-28T04:23:54;19.20;99.90
9973;DHT22;5027;53.560;10.062;2023-07-28T04:26:23;19.10;99.90
9973;DHT22;5027;53.560;10.062;2023-07-28T04:28:57;19.10;99.90
9973;DHT22;5027;53.560;10.062;2023-07-28T04:31:23;19.10;99.90
9973;DHT22;5027;53.560;10.062;2023-07-28T04:33:55;19.10;99.90
9973;DHT22;5027;53.560;10.062;2023-07-28T04:36:26;19.10;99.90
9973;DHT22;5027;53.560;10.062;2023-07-28T04:38:53;19.20;99.90
9973;DHT22;5027;53.560;10.062;2023-07-28T04:41:23;19.10;99.90
9973;DHT22;5027;53.560;10.062;2023-07-28T04:43:52;19.20;99.90
9973;DHT22;5027;53.560;10.062;2023-07-28T04:46:20;19.20;99.90
9973;DHT22;5027;53.560;10.062;2023-07-28T04:48:54;19.20;99.90
9973;DHT22;5027;53.560;10.062;2023-07-28T04:51:47;19.10;99.90
9973;DHT22;5027;53.560;10.062;2023-07-28T04:54:32;19.10;99.90
9973;DHT22;5027;53.560;10.062;2023-07-28T04:56:59;19.10;99.90
9973;DHT22;5027;53.560;10.062;2023-07-28T04:59:31;19.20;99.90
9973;DHT22;5027;53.560;10.062;2023-07-28T05:01:58;19.20;99.90
9973;DHT22;5027;53.560;10.062;2023-07-28T05:04:25;19.20;99.90
9973;DHT22;5027;53.560;10.062;2023-07-28T05:06:52;19.20;99.90
9973;DHT22;5027;53.560;10.062;2023-07-28T05:09:19;19.20;99.90
9973;DHT22;5027;53.560;10.062;2023-07-28T05:11:46;19.20;99.90
9973;DHT22;5027;53.560;10.062;2023-07-28T05:14:15;19.30;99.90
9973;DHT22;5027;53.560;10.062;2023-07-28T05:16:42;19.30;99.90
9973;DHT22;5027;53.560;10.062;2023-07-28T05:19:09;19.30;99.90
9973;DHT22;5027;53.560;10.062;2023-07-28T05:21:58;19.30;99.90
9973;DHT22;5027;53.560;10.062;2023-07-28T05:24:34;19.20;99.90
9973;DHT22;5027;53.560;10.062;2023-07-28T05:27:04;19.20;99.90
9973;DHT22;5027;53.560;10.062;2023-07-28T05:29:31;19.20;99.90
9973;DHT22;5027;53.560;10.062;2023-07-28T05:32:03;19.20;99.90
9973;DHT22;5027;53.560;10.062;2023-07-28T05:34:37;19.30;99.90
9973;DHT22;5027;53.560;10.062;2023-07-28T05:37:05;19.30;99.90
9973;DHT22;5027;53.560;10.062;2023-07-28T05:39:33;19.30;99.90
9973;DHT22;5027;53.560;10.062;2023-07-28T05:41:59;19.30;99.90
9973;DHT22;5027;53.560;10.062;2023-07-28T05:44:26;19.30;99.90
9973;DHT22;5027;53.560;10.062;2023-07-28T05:46:53;19.30;99.90
9973;DHT22;5027;53.560;10.062;2023-07-28T05:49:20;19.40;99.90
9973;DHT22;5027;53.560;10.062;2023-07-28T05:51:47;19.30;99.90
9973;DHT22;5027;53.560;10.062;2023-07-28T05:54:15;19.30;99.90
9973;DHT22;5027;53.560;10.062;2023-07-28T05:56:42;19.30;99.90
9973;DHT22;5027;53.560;10.062;2023-07-28T05:59:09;19.30;99.90
9973;DHT22;5027;53.560;10.062;2023-07-28T06:01:36;19.30;99.90
9973;DHT22;5027;53.560;10.062;2023-07-28T06:04:31;19.30;99.90
9973;DHT22;5027;53.560;10.062;2023-07-28T06:07:00;19.30;99.90
9973;DHT22;5027;53.560;10.062;2023-07-28T06:09:26;19.30;99.90
9973;DHT22;5027;53.560;10.062;2023-07-28T06:11:53;19.30;99.90
9973;DHT22;5027;53.560;10.062;2023-07-28T06:14:22;19.30;99.90
9973;DHT22;5027;53.560;10.062;2023-07-28T06:16:49;19.30;99.90
9973;DHT22;5027;53.560;10.062;2023-07-28T06:19:16;19.30;99.90
9973;DHT22;5027;53.560;10.062;2023-07-28T06:21:51;19.30;99.90
9973;DHT22;5027;53.560;10.062;2023-07-28T06:24:18;19.30;99.90
9973;DHT22;5027;53.560;10.062;2023-07-28T06:26:45;19.40;99.90
9973;DHT22;5027;53.560;10.062;2023-07-28T06:29:12;19.40;99.90
9973;DHT22;5027;53.560;10.062;2023-07-28T06:31:39;19.40;99.90
9973;DHT22;5027;53.560;10.062;2023-07-28T06:34:06;19.40;99.90
9973;DHT22;5027;53.560;10.062;2023-07-28T06:36:33;19.50;99.90
9973;DHT22;5027;53.560;10.062;2023-07-28T06:39:00;19.50;99.90
9973;DHT22;5027;53.560;10.062;2023-07-28T06:41:27;19.40;99.90
9973;DHT22;5027;53.560;10.062;2023-07-28T06:43:59;19.40;99.90
9973;DHT22;5027;53.560;10.062;2023-07-28T06:46:28;19.50;99.90
9973;DHT22;5027;53.560;10.062;2023-07-28T06:48:55;19.50;99.90
9973;DHT22;5027;53.560;10.062;2023-07-28T06:51:21;19.50;99.90
9973;DHT22;5027;53.560;10.062;2023-07-28T06:53:48;19.50;99.90
9973;DHT22;5027;53.560;10.062;2023-07-28T06:56:15;19.50;99.90
9973;DHT22;5027;53.560;10.062;2023-07-28T06:58:42;19.50;99.90
9973;DHT22;5027;53.560;10.062;2023-07-28T07:01:20;19.60;99.90
9973;DHT22;5027;53.560;10.062;2023-07-28T07:03:48;19.50;99.90
9973;DHT22;5027;53.560;10.062;2023-07-28T07:06:15;19.50;99.90
9973;DHT22;5027;53.560;10.062;2023-07-28T07:08:42;19.60;99.90
9973;DHT22;5027;53.560;10.062;2023-07-28T07:11:09;19.60;99.90
9973;DHT22;5027;53.560;10.062;2023-07-28T07:13:36;19.60;99.90
9973;DHT22;5027;53.560;10.062;2023-07-28T07:16:02;19.60;99.90
9973;DHT22;5027;53.560;10.062;2023-07-28T07:18:29;19.60;99.90
9973;DHT22;5027;53.560;10.062;2023-07-28T07:20:56;19.50;99.90
9973;DHT22;5027;53.560;10.062;2023-07-28T07:23:23;19.60;99.90
9973;DHT22;5027;53.560;10.062;2023-07-28T07:25:50;19.60;99.90
9973;DHT22;5027;53.560;10.062;2023-07-28T07:28:16;19.60;99.90
9973;DHT22;5027;53.560;10.062;2023-07-28T07:30:43;19.60;99.90
9973;DHT22;5027;53.560;10.062;2023-07-28T07:33:10;19.70;99.90
9973;DHT22;5027;53.560;10.062;2023-07-28T07:35:37;19.70;99.90
9973;DHT22;5027;53.560;10.062;2023-07-28T07:38:05;19.70;99.90
9973;DHT22;5027;53.560;10.062;2023-07-28T07:40:35;19.60;99.90
9973;DHT22;5027;53.560;10.062;2023-07-28T07:43:03;19.70;99.90
9973;DHT22;5027;53.560;10.062;2023-07-28T07:45:30;19.60;99.90
9973;DHT22;5027;53.560;10.062;2023-07-28T07:47:58;19.70;99.90
9973;DHT22;5027;53.560;10.062;2023-07-28T07:50:25;19.60;99.90
9973;DHT22;5027;53.560;10.062;2023-07-28T07:52:52;19.60;99.90
9973;DHT22;5027;53.560;10.062;2023-07-28T07:55:18;19.60;99.90
9973;DHT22;5027;53.560;10.062;2023-07-28T07:57:45;19.60;99.90
9973;DHT22;5027;53.560;10.062;2023-07-28T08:00:13;19.60;99.90
9973;DHT22;5027;53.560;10.062;2023-07-28T08:02:40;19.60;99.90
9973;DHT22;5027;53.560;10.062;2023-07-28T08:05:10;19.70;99.90
9973;DHT22;5027;53.560;10.062;2023-07-28T08:07:37;19.70;99.90
9973;DHT22;5027;53.560;10.062;2023-07-28T08:10:04;19.70;99.90
9973;DHT22;5027;53.560;10.062;2023-07-28T08:12:31;19.70;99.90
9973;DHT22;5027;53.560;10.062;2023-07-28T08:14:58;19.80;99.90
9973;DHT22;5027;53.560;10.062;2023-07-28T08:17:25;19.80;99.90
9973;DHT22;5027;53.560;10.062;2023-07-28T08:19:52;19.80;99.90
9973;DHT22;5027;53.560;10.062;2023-07-28T08:22:19;19.80;99.90
9973;DHT22;5027;53.560;10.062;2023-07-28T08:24:45;19.90;99.90
9973;DHT22;5027;53.560;10.062;2023-07-28T08:27:12;19.80;99.90
9973;DHT22;5027;53.560;10.062;2023-07-28T08:29:39;19.80;99.90
9973;DHT22;5027;53.560;10.062;2023-07-28T08:32:06;19.80;99.90
9973;DHT22;5027;53.560;10.062;2023-07-28T08:34:33;19.80;99.90
9973;DHT22;5027;53.560;10.062;2023-07-28T08:36:59;19.80;99.90
9973;DHT22;5027;53.560;10.062;2023-07-28T08:39:26;19.80;99.90
9973;DHT22;5027;53.560;10.062;2023-07-28T08:42:03;19.80;99.90
9973;DHT22;5027;53.560;10.062;2023-07-28T08:44:34;19.80;99.90
9973;DHT22;5027;53.560;10.062;2023-07-28T08:47:03;19.80;99.90
9973;DHT22;5027;53.560;10.062;2023-07-28T08:49:31;19.80;99.90
9973;DHT22;5027;53.560;10.062;2023-07-28T08:52:00;19.80;99.90
9973;DHT22;5027;53.560;10.062;2023-07-28T08:54:27;19.80;99.90
9973;DHT22;5027;53.560;10.062;2023-07-28T08:56:54;19.80;99.90
9973;DHT22;5027;53.560;10.062;2023-07-28T08:59:25;19.80;99.90
9973;DHT22;5027;53.560;10.062;2023-07-28T09:01:55;19.80;99.90
9973;DHT22;5027;53.560;10.062;2023-07-28T09:04:23;19.80;99.90
9973;DHT22;5027;53.560;10.062;2023-07-28T09:06:51;19.80;99.90
9973;DHT22;5027;53.560;10.062;2023-07-28T09:09:21;19.90;99.90
9973;DHT22;5027;53.560;10.062;2023-07-28T09:11:53;19.90;99.90
9973;DHT22;5027;53.560;10.062;2023-07-28T09:14:21;19.90;99.90
9973;DHT22;5027;53.560;10.062;2023-07-28T09:16:50;19.90;99.90
9973;DHT22;5027;53.560;10.062;2023-07-28T09:19:17;19.90;99.90
9973;DHT22;5027;53.560;10.062;2023-07-28T09:21:58;19.90;99.90
9973;DHT22;5027;53.560;10.062;2023-07-28T09:24:33;19.90;99.90
9973;DHT22;5027;53.560;10.062;2023-07-28T09:27:01;19.90;99.90
9973;DHT22;5027;53.560;10.062;2023-07-28T09:29:28;19.90;99.90
9973;DHT22;5027;53.560;10.062;2023-07-28T09:32:03;19.90;99.90
9973;DHT22;5027;53.560;10.062;2023-07-28T09:34:31;19.90;99.90
9973;DHT22;5027;53.560;10.062;2023-07-28T09:37:00;19.90;99.90
9973;DHT22;5027;53.560;10.062;2023-07-28T09:39:27;19.90;99.90
9973;DHT22;5027;53.560;10.062;2023-07-28T09:41:54;19.90;99.90
9973;DHT22;5027;53.560;10.062;2023-07-28T09:44:25;19.90;99.90
9973;DHT22;5027;53.560;10.062;2023-07-28T09:46:53;19.90;99.90
9973;DHT22;5027;53.560;10.062;2023-07-28T09:49:29;19.90;99.90
9973;DHT22;5027;53.560;10.062;2023-07-28T09:52:05;19.90;99.90
9973;DHT22;5027;53.560;10.062;2023-07-28T09:54:36;19.90;99.90
9973;DHT22;5027;53.560;10.062;2023-07-28T09:57:08;19.90;99.90
9973;DHT22;5027;53.560;10.062;2023-07-28T09:59:38;19.90;99.90
9973;DHT22;5027;53.560;10.062;2023-07-28T10:02:06;19.90;99.90
9973;DHT22;5027;53.560;10.062;2023-07-28T10:04:33;19.90;99.90
9973;DHT22;5027;53.560;10.062;2023-07-28T10:07:01;19.90;99.90
9973;DHT22;5027;53.560;10.062;2023-07-28T10:09:29;19.90;99.90
9973;DHT22;5027;53.560;10.062;2023-07-28T10:11:57;19.90;99.90
9973;DHT22;5027;53.560;10.062;2023-07-28T10:14:33;19.90;99.90
9973;DHT22;5027;53.560;10.062;2023-07-28T10:17:01;19.90;99.90
9973;DHT22;5027;53.560;10.062;2023-07-28T10:19:35;19.90;99.90
9973;DHT22;5027;53.560;10.062;2023-07-28T10:22:04;20.00;99.90
9973;DHT22;5027;53.560;10.062;2023-07-28T10:24:52;20.00;99.90
9973;DHT22;5027;53.560;10.062;2023-07-28T10:30:04;20.00;99.90
9973;DHT22;5027;53.560;10.062;2023-07-28T10:32:39;20.00;99.90
9973;DHT22;5027;53.560;10.062;2023-07-28T10:35:08;20.00;99.90
9973;DHT22;5027;53.560;10.062;2023-07-28T10:37:36;20.00;99.90
9973;DHT22;5027;53.560;10.062;2023-07-28T10:40:29;20.00;99.90
9973;DHT22;5027;53.560;10.062;2023-07-28T10:43:03;20.00;99.90
9973;DHT22;5027;53.560;10.062;2023-07-28T10:45:32;20.00;99.90
9973;DHT22;5027;53.560;10.062;2023-07-28T10:47:59;20.00;99.90
9973;DHT22;5027;53.560;10.062;2023-07-28T10:50:28;20.00;99.90
9973;DHT22;5027;53.560;10.062;2023-07-28T10:52:55;20.00;99.90
9973;DHT22;5027;53.560;10.062;2023-07-28T10:55:24;20.00;99.90
9973;DHT22;5027;53.560;10.062;2023-07-28T10:57:53;20.00;99.90
9973;DHT22;5027;53.560;10.062;2023-07-28T11:00:21;20.00;99.90
9973;DHT22;5027;53.560;10.062;2023-07-28T11:02:50;20.00;99.90
9973;DHT22;5027;53.560;10.062;2023-07-28T11:05:26;20.00;99.90
9973;DHT22;5027;53.560;10.062;2023-07-28T11:08:01;20.10;99.90
9973;DHT22;5027;53.560;10.062;2023-07-28T11:10:29;20.10;99.90
9973;DHT22;5027;53.560;10.062;2023-07-28T11:13:00;20.10;99.90
9973;DHT22;5027;53.560;10.062;2023-07-28T11:15:32;20.00;99.90
9973;DHT22;5027;53.560;10.062;2023-07-28T11:18:03;20.10;99.90
9973;DHT22;5027;53.560;10.062;2023-07-28T11:20:30;20.10;99.90
9973;DHT22;5027;53.560;10.062;2023-07-28T11:23:02;20.10;99.90
9973;DHT22;5027;53.560;10.062;2023-07-28T11:25:33;20.10;99.90
9973;DHT22;5027;53.560;10.062;2023-07-28T11:28:01;20.10;99.90
9973;DHT22;5027;53.560;10.062;2023-07-28T11:30:30;20.10;99.90
9973;DHT22;5027;53.560;10.062;2023-07-28T11:32:57;20.10;99.90
9973;DHT22;5027;53.560;10.062;2023-07-28T11:35:24;20.10;99.90
9973;DHT22;5027;53.560;10.062;2023-07-28T11:37:52;20.10;99.90
9973;DHT22;5027;53.560;10.062;2023-07-28T11:40:21;20.10;99.90
9973;DHT22;5027;53.560;10.062;2023-07-28T11:42:51;20.10;99.90
9973;DHT22;5027;53.560;10.062;2023-07-28T11:45:19;20.10;99.90
9973;DHT22;5027;53.560;10.062;2023-07-28T11:47:56;20.20;99.90
9973;DHT22;5027;53.560;10.062;2023-07-28T11:50:28;20.20;99.90
9973;DHT22;5027;53.560;10.062;2023-07-28T11:52:59;20.20;99.90
9973;DHT22;5027;53.560;10.062;2023-07-28T11:55:26;20.20;99.90
9973;DHT22;5027;53.560;10.062;2023-07-28T11:57:53;20.20;99.90
9973;DHT22;5027;53.560;10.062;2023-07-28T12:00:30;20.20;99.90
9973;DHT22;5027;53.560;10.062;2023-07-28T12:03:01;20.20;99.90
9973;DHT22;5027;53.560;10.062;2023-07-28T12:05:30;20.20;99.90
9973;DHT22;5027;53.560;10.062;2023-07-28T12:07:57;20.20;99.90
9973;DHT22;5027;53.560;10.062;2023-07-28T12:10:24;20.20;99.90
9973;DHT22;5027;53.560;10.062;2023-07-28T12:12:54;20.20;99.90
9973;DHT22;5027;53.560;10.062;2023-07-28T12:15:25;20.20;99.90
9973;DHT22;5027;53.560;10.062;2023-07-28T12:20:43;20.30;99.90
9973;DHT22;5027;53.560;10.062;2023-07-28T12:23:17;20.20;99.90
9973;DHT22;5027;53.560;10.062;2023-07-28T12:25:48;20.20;99.90
9973;DHT22;5027;53.560;10.062;2023-07-28T12:28:17;20.20;99.90
9973;DHT22;5027;53.560;10.062;2023-07-28T12:30:46;20.20;99.90
9973;DHT22;5027;53.560;10.062;2023-07-28T12:33:15;20.20;99.90
9973;DHT22;5027;53.560;10.062;2023-07-28T12:35:45;20.20;99.90
9973;DHT22;5027;53.560;10.062;2023-07-28T12:38:15;20.20;99.90
9973;DHT22;5027;53.560;10.062;2023-07-28T12:40:45;20.20;99.90
9973;DHT22;5027;53.560;10.062;2023-07-28T12:43:14;20.20;99.90
9973;DHT22;5027;53.560;10.062;2023-07-28T12:45:44;20.20;99.90
9973;DHT22;5027;53.560;10.062;2023-07-28T12:48:13;20.20;99.90
9973;DHT22;5027;53.560;10.062;2023-07-28T12:50:43;20.20;99.90
9973;DHT22;5027;53.560;10.062;2023-07-28T12:53:10;20.20;99.90
9973;DHT22;5027;53.560;10.062;2023-07-28T12:55:43;20.20;99.90
9973;DHT22;5027;53.560;10.062;2023-07-28T12:58:13;20.20;99.90
9973;DHT22;5027;53.560;10.062;2023-07-28T13:00:43;20.20;99.90
9973;DHT22;5027;53.560;10.062;2023-07-28T13:03:13;20.20;99.90
9973;DHT22;5027;53.560;10.062;2023-07-28T13:05:40;20.20;99.90
9973;DHT22;5027;53.560;10.062;2023-07-28T13:08:10;20.30;99.90
9973;DHT22;5027;53.560;10.062;2023-07-28T13:10:37;20.30;99.90
9973;DHT22;5027;53.560;10.062;2023-07-28T13:13:07;20.30;99.90
9973;DHT22;5027;53.560;10.062;2023-07-28T13:15:39;20.30;99.90
9973;DHT22;5027;53.560;10.062;2023-07-28T13:18:06;20.30;99.90
9973;DHT22;5027;53.560;10.062;2023-07-28T13:20:33;20.30;99.90
9973;DHT22;5027;53.560;10.062;2023-07-28T13:23:00;20.30;99.90
9973;DHT22;5027;53.560;10.062;2023-07-28T13:25:26;20.30;99.90
9973;DHT22;5027;53.560;10.062;2023-07-28T13:27:53;20.30;99.90
9973;DHT22;5027;53.560;10.062;2023-07-28T13:30:20;20.30;99.90
9973;DHT22;5027;53.560;10.062;2023-07-28T13:32:47;20.30;99.90
9973;DHT22;5027;53.560;10.062;2023-07-28T13:35:14;20.30;99.90
9973;DHT22;5027;53.560;10.062;2023-07-28T13:37:41;20.30;99.90
9973;DHT22;5027;53.560;10.062;2023-07-28T13:40:08;20.30;99.90
9973;DHT22;5027;53.560;10.062;2023-07-28T13:42:39;20.30;99.90
9973;DHT22;5027;53.560;10.062;2023-07-28T13:45:06;20.40;99.90
9973;DHT22;5027;53.560;10.062;2023-07-28T13:47:33;20.40;99.90
9973;DHT22;5027;53.560;10.062;2023-07-28T13:49:59;20.30;99.90
9973;DHT22;5027;53.560;10.062;2023-07-28T13:52:26;20.40;99.90
9973;DHT22;5027;53.560;10.062;2023-07-28T13:54:53;20.40;99.90
9973;DHT22;5027;53.560;10.062;2023-07-28T13:57:23;20.40;99.90
9973;DHT22;5027;53.560;10.062;2023-07-28T13:59:50;20.40;99.90
9973;DHT22;5027;53.560;10.062;2023-07-28T14:02:17;20.30;99.90
9973;DHT22;5027;53.560;10.062;2023-07-28T14:04:45;20.30;99.90
9973;DHT22;5027;53.560;10.062;2023-07-28T14:07:11;20.30;99.90
9973;DHT22;5027;53.560;10.062;2023-07-28T14:09:38;20.30;99.90
9973;DHT22;5027;53.560;10.062;2023-07-28T14:12:06;20.40;99.90
9973;DHT22;5027;53.560;10.062;2023-07-28T14:14:33;20.40;99.90
9973;DHT22;5027;53.560;10.062;2023-07-28T14:16:59;20.40;99.90
9973;DHT22;5027;53.560;10.062;2023-07-28T14:19:26;20.40;99.90
9973;DHT22;5027;53.560;10.062;2023-07-28T14:21:53;20.40;99.90
9973;DHT22;5027;53.560;10.062;2023-07-28T14:24:20;20.40;99.90
9973;DHT22;5027;53.560;10.062;2023-07-28T14:26:47;20.40;99.90
9973;DHT22;5027;53.560;10.062;2023-07-28T14:29:13;20.50;99.90
9973;DHT22;5027;53.560;10.062;2023-07-28T14:31:40;20.50;99.90
9973;DHT22;5027;53.560;10.062;2023-07-28T14:34:07;20.50;99.90
9973;DHT22;5027;53.560;10.062;2023-07-28T14:36:34;20.50;99.90
9973;DHT22;5027;53.560;10.062;2023-07-28T14:39:03;20.40;99.90
9973;DHT22;5027;53.560;10.062;2023-07-28T14:41:30;20.40;99.90
9973;DHT22;5027;53.560;10.062;2023-07-28T14:43:57;20.40;99.90
9973;DHT22;5027;53.560;10.062;2023-07-28T14:46:24;20.40;99.90
9973;DHT22;5027;53.560;10.062;2023-07-28T14:48:52;20.40;99.90
9973;DHT22;5027;53.560;10.062;2023-07-28T14:51:19;20.40;99.90
9973;DHT22;5027;53.560;10.062;2023-07-28T14:53:46;20.50;99.90
9973;DHT22;5027;53.560;10.062;2023-07-28T14:56:15;20.50;99.90
9973;DHT22;5027;53.560;10.062;2023-07-28T14:58:42;20.50;99.90
9973;DHT22;5027;53.560;10.062;2023-07-28T15:01:10;20.50;99.90
9973;DHT22;5027;53.560;10.062;2023-07-28T15:03:37;20.50;99.90
9973;DHT22;5027;53.560;10.062;2023-07-28T15:06:04;20.50;99.90
9973;DHT22;5027;53.560;10.062;2023-07-28T15:08:32;20.50;99.90
9973;DHT22;5027;53.560;10.062;2023-07-28T15:10:59;20.50;99.90
9973;DHT22;5027;53.560;10.062;2023-07-28T15:13:26;20.50;99.90
9973;DHT22;5027;53.560;10.062;2023-07-28T15:15:53;20.40;99.90
9973;DHT22;5027;53.560;10.062;2023-07-28T15:18:20;20.50;99.90
9973;DHT22;5027;53.560;10.062;2023-07-28T15:20:47;20.50;99.90
9973;DHT22;5027;53.560;10.062;2023-07-28T15:23:14;20.50;99.90
9973;DHT22;5027;53.560;10.062;2023-07-28T15:25:40;20.40;99.90
9973;DHT22;5027;53.560;10.062;2023-07-28T15:28:12;20.40;99.90
9973;DHT22;5027;53.560;10.062;2023-07-28T15:30:40;20.50;99.90
9973;DHT22;5027;53.560;10.062;2023-07-28T15:33:11;20.50;99.90
9973;DHT22;5027;53.560;10.062;2023-07-28T15:35:38;20.50;99.90
9973;DHT22;5027;53.560;10.062;2023-07-28T15:38:04;20.50;99.90
9973;DHT22;5027;53.560;10.062;2023-07-28T15:40:31;20.50;99.90
9973;DHT22;5027;53.560;10.062;2023-07-28T15:42:58;20.50;99.90
9973;DHT22;5027;53.560;10.062;2023-07-28T15:45:24;20.50;99.90
9973;DHT22;5027;53.560;10.062;2023-07-28T15:47:51;20.50;99.90
9973;DHT22;5027;53.560;10.062;2023-07-28T15:50:18;20.50;99.90
9973;DHT22;5027;53.560;10.062;2023-07-28T15:52:45;20.50;99.90
9973;DHT22;5027;53.560;10.062;2023-07-28T15:55:12;20.50;99.90
9973;DHT22;5027;53.560;10.062;2023-07-28T15:57:38;20.50;99.90
9973;DHT22;5027;53.560;10.062;2023-07-28T16:00:05;20.50;99.90
9973;DHT22;5027;53.560;10.062;2023-07-28T16:02:38;20.50;99.90